createdAt,value
2022-08-26T00:02:15.799Z,27.24
2022-08-26T00:04:46.119Z,27.14
2022-08-26T00:07:12.944Z,27.28
2022-08-26T00:09:40.092Z,27.17
2022-08-26T00:12:07.849Z,26.85
2022-08-26T00:14:35.751Z,27.17
2022-08-26T00:17:02.267Z,27.26
2022-08-26T00:19:28.815Z,27.39
2022-08-26T00:21:55.325Z,27.39
2022-08-26T00:24:22.597Z,26.32
2022-08-26T00:26:50.451Z,26.32
2022-08-26T00:29:18.548Z,27.03
2022-08-26T00:31:45.529Z,26.50
2022-08-26T00:34:12.800Z,26.79
2022-08-26T00:36:40.923Z,26.92
2022-08-26T00:39:08.043Z,27.18
2022-08-26T00:41:36.062Z,26.81
2022-08-26T00:44:03.199Z,26.97
2022-08-26T00:46:34.122Z,26.79
2022-08-26T00:49:13.460Z,26.36
2022-08-26T00:51:47.565Z,27.12
2022-08-26T00:54:15.252Z,26.65
2022-08-26T00:56:50.454Z,26.98
2022-08-26T00:59:17.938Z,27.01
2022-08-26T01:01:45.932Z,27.06
2022-08-26T01:04:15.598Z,27.04
2022-08-26T01:06:44.389Z,27.11
2022-08-26T01:09:11.810Z,26.85
2022-08-26T01:11:38.757Z,26.91
2022-08-26T01:14:07.807Z,26.90
2022-08-26T01:16:35.579Z,26.84
2022-08-26T01:19:25.494Z,26.87
2022-08-26T01:21:59.139Z,26.85
2022-08-26T01:24:28.773Z,26.44
2022-08-26T01:27:03.383Z,26.61
2022-08-26T01:29:33.503Z,26.45
2022-08-26T01:32:00.536Z,26.53
2022-08-26T01:34:37.822Z,25.97
2022-08-26T01:37:14.186Z,26.52
2022-08-26T01:39:45.033Z,26.52
2022-08-26T01:42:15.046Z,26.40
2022-08-26T01:44:53.726Z,26.24
2022-08-26T01:47:24.245Z,26.28
2022-08-26T01:49:54.371Z,26.36
2022-08-26T01:52:27.967Z,26.37
2022-08-26T01:54:57.190Z,26.39
2022-08-26T01:57:25.317Z,26.37
2022-08-26T01:59:55.388Z,26.26
2022-08-26T02:02:23.043Z,26.30
2022-08-26T02:04:57.204Z,26.31
2022-08-26T02:07:24.399Z,26.26
2022-08-26T02:09:54.376Z,26.25
2022-08-26T02:12:21.020Z,26.13
2022-08-26T02:14:53.241Z,26.24
2022-08-26T02:17:25.867Z,26.18
2022-08-26T02:19:53.038Z,26.17
2022-08-26T02:22:23.020Z,26.06
2022-08-26T02:24:51.190Z,26.08
2022-08-26T02:27:28.257Z,25.95
2022-08-26T02:30:08.469Z,25.73
2022-08-26T02:32:35.344Z,25.13
2022-08-26T02:35:01.920Z,25.01
2022-08-26T02:37:31.296Z,24.49
2022-08-26T02:39:58.225Z,24.45
2022-08-26T02:42:24.692Z,25.10
2022-08-26T02:44:51.741Z,25.38
2022-08-26T02:47:18.306Z,25.24
2022-08-26T02:49:47.274Z,25.16
2022-08-26T02:52:14.748Z,25.49
2022-08-26T02:54:41.303Z,25.55
2022-08-26T02:57:09.624Z,24.76
2022-08-26T02:59:39.158Z,24.18
2022-08-26T03:02:06.721Z,24.01
2022-08-26T03:04:34.803Z,24.65
2022-08-26T03:07:01.419Z,24.29
2022-08-26T03:09:27.964Z,24.00
2022-08-26T03:11:55.442Z,24.35
2022-08-26T03:14:23.930Z,24.82
2022-08-26T03:16:53.877Z,24.66
2022-08-26T03:19:23.258Z,24.70
2022-08-26T03:21:50.042Z,24.85
2022-08-26T03:24:19.432Z,24.39
2022-08-26T03:26:52.095Z,23.40
2022-08-26T03:29:38.667Z,24.29
2022-08-26T03:32:06.163Z,23.56
2022-08-26T03:34:33.011Z,24.20
2022-08-26T03:36:59.720Z,24.65
2022-08-26T03:39:26.302Z,24.79
2022-08-26T03:41:55.313Z,24.24
2022-08-26T03:44:21.844Z,24.38
2022-08-26T03:46:48.427Z,24.69
2022-08-26T03:49:15.559Z,24.70
2022-08-26T03:51:42.154Z,24.72
2022-08-26T03:54:09.259Z,23.65
2022-08-26T03:56:36.763Z,23.40
2022-08-26T03:59:04.823Z,23.87
2022-08-26T04:01:34.212Z,23.92
2022-08-26T04:04:01.290Z,23.80
2022-08-26T04:06:37.958Z,23.85
2022-08-26T04:09:11.450Z,23.96
2022-08-26T04:11:39.560Z,22.98
2022-08-26T04:14:20.036Z,22.93
2022-08-26T04:16:47.892Z,23.20
2022-08-26T04:19:15.483Z,23.79
2022-08-26T04:21:42.354Z,24.26
2022-08-26T04:24:12.224Z,24.39
2022-08-26T04:26:42.593Z,24.49
2022-08-26T04:29:15.539Z,24.52
2022-08-26T04:31:42.424Z,24.46
2022-08-26T04:34:11.042Z,24.48
2022-08-26T04:36:38.485Z,24.56
2022-08-26T04:39:05.387Z,24.54
2022-08-26T04:41:32.437Z,24.34
2022-08-26T04:43:59.008Z,24.59
2022-08-26T04:46:25.950Z,24.64
2022-08-26T04:48:54.029Z,24.43
2022-08-26T04:51:27.394Z,24.23
2022-08-26T04:53:58.727Z,24.55
2022-08-26T04:56:31.170Z,24.61
2022-08-26T04:58:57.648Z,24.66
2022-08-26T05:01:24.457Z,24.58
2022-08-26T05:03:51.819Z,24.14
2022-08-26T05:06:19.931Z,24.25
2022-08-26T05:08:46.849Z,24.61
2022-08-26T05:11:13.497Z,24.54
2022-08-26T05:13:40.352Z,24.56
2022-08-26T05:16:11.663Z,24.72
2022-08-26T05:18:39.468Z,24.73
2022-08-26T05:21:07.095Z,24.51
2022-08-26T05:23:35.980Z,24.55
2022-08-26T05:26:06.939Z,24.75
2022-08-26T05:28:34.929Z,24.97
2022-08-26T05:31:01.958Z,24.92
2022-08-26T05:33:29.318Z,24.99
2022-08-26T05:35:55.805Z,24.42
2022-08-26T05:38:23.401Z,24.74
2022-08-26T05:40:52.838Z,25.11
2022-08-26T05:43:20.351Z,25.20
2022-08-26T05:45:49.906Z,25.13
2022-08-26T05:48:22.868Z,25.29
2022-08-26T05:50:52.935Z,25.61
2022-08-26T05:53:21.802Z,25.71
2022-08-26T05:55:51.038Z,25.94
2022-08-26T05:58:22.171Z,25.78
2022-08-26T06:01:14.232Z,25.55
2022-08-26T06:03:46.161Z,25.96
2022-08-26T06:06:20.086Z,26.36
2022-08-26T06:08:47.755Z,25.78
2022-08-26T06:11:18.692Z,26.07
2022-08-26T06:13:45.919Z,26.47
2022-08-26T06:16:15.941Z,26.09
2022-08-26T06:18:45.368Z,26.67
2022-08-26T06:21:30.113Z,26.66
2022-08-26T06:24:18.448Z,26.88
2022-08-26T06:26:52.841Z,26.85
2022-08-26T06:29:24.461Z,26.93
2022-08-26T06:31:53.218Z,27.26
2022-08-26T06:34:19.892Z,27.22
2022-08-26T06:36:47.355Z,27.59
2022-08-26T06:39:16.190Z,26.71
2022-08-26T06:41:44.973Z,27.57
2022-08-26T06:44:14.023Z,27.77
2022-08-26T06:46:41.400Z,27.79
2022-08-26T06:49:08.226Z,26.96
2022-08-26T06:51:37.312Z,26.99
2022-08-26T06:54:05.506Z,27.65
2022-08-26T06:56:41.875Z,27.82
2022-08-26T06:59:12.223Z,27.59
2022-08-26T07:01:44.566Z,28.04
2022-08-26T07:04:14.398Z,28.15
2022-08-26T07:06:47.010Z,28.62
2022-08-26T07:09:13.494Z,28.58
2022-08-26T07:11:40.833Z,28.82
2022-08-26T07:14:08.007Z,28.77
2022-08-26T07:16:35.724Z,28.66
2022-08-26T07:19:03.641Z,28.51
2022-08-26T07:21:38.600Z,28.91
2022-08-26T07:24:06.278Z,29.06
2022-08-26T07:26:32.958Z,29.67
2022-08-26T07:28:59.977Z,29.93
2022-08-26T07:31:32.572Z,30.07
2022-08-26T07:34:02.629Z,30.57
2022-08-26T07:36:30.599Z,30.88
2022-08-26T07:38:57.209Z,30.57
2022-08-26T07:41:25.044Z,28.90
2022-08-26T07:43:53.549Z,30.32
2022-08-26T07:46:20.653Z,30.71
2022-08-26T07:48:48.394Z,30.55
2022-08-26T07:51:17.538Z,29.97
2022-08-26T07:53:48.054Z,30.28
2022-08-26T07:56:19.165Z,30.34
2022-08-26T07:58:49.023Z,30.57
2022-08-26T08:01:18.854Z,30.51
2022-08-26T08:03:45.494Z,30.34
2022-08-26T08:06:12.402Z,30.81
2022-08-26T08:08:41.306Z,30.49
2022-08-26T08:11:07.851Z,30.69
2022-08-26T08:13:37.410Z,31.00
2022-08-26T08:16:05.329Z,31.57
2022-08-26T08:18:31.911Z,31.57
2022-08-26T08:21:20.900Z,31.47
2022-08-26T08:23:47.051Z,30.81
2022-08-26T08:26:14.130Z,30.56
2022-08-26T08:28:40.668Z,31.34
2022-08-26T08:31:08.159Z,31.29
2022-08-26T08:33:35.283Z,31.27
2022-08-26T08:36:02.053Z,31.08
2022-08-26T08:38:29.404Z,30.94
2022-08-26T08:40:55.897Z,30.49
2022-08-26T08:43:28.439Z,30.30
2022-08-26T08:46:06.006Z,31.09
2022-08-26T08:48:37.747Z,31.23
2022-08-26T08:51:20.499Z,29.89
2022-08-26T08:53:49.887Z,30.80
2022-08-26T08:56:30.159Z,30.34
2022-08-26T08:58:59.486Z,30.35
2022-08-26T09:01:30.581Z,29.88
2022-08-26T09:04:28.930Z,29.74
2022-08-26T09:07:00.185Z,30.14
2022-08-26T09:09:44.309Z,29.08
2022-08-26T09:12:20.643Z,29.85
2022-08-26T09:15:30.198Z,29.82
2022-08-26T09:18:23.661Z,30.20
2022-08-26T09:20:58.884Z,30.24
2022-08-26T09:23:26.607Z,30.30
2022-08-26T09:25:57.812Z,30.47
2022-08-26T09:28:42.674Z,30.61
2022-08-26T09:31:34.112Z,30.77
2022-08-26T09:34:23.681Z,29.16
2022-08-26T09:36:57.456Z,28.99
2022-08-26T09:39:29.084Z,29.92
2022-08-26T09:42:04.958Z,29.98
2022-08-26T09:44:32.315Z,29.54
2022-08-26T09:47:02.747Z,29.94
2022-08-26T09:49:38.903Z,30.48
2022-08-26T09:52:17.539Z,30.54
2022-08-26T09:54:58.121Z,29.68
2022-08-26T09:57:27.570Z,30.49
2022-08-26T09:59:55.527Z,30.73
2022-08-26T10:02:33.839Z,30.85
2022-08-26T10:05:09.115Z,30.56
2022-08-26T10:07:41.551Z,30.74
2022-08-26T10:10:13.581Z,30.69
2022-08-26T10:13:00.389Z,30.74
2022-08-26T10:15:27.979Z,30.94
2022-08-26T10:18:02.957Z,31.03
2022-08-26T10:20:36.156Z,31.17
2022-08-26T10:23:03.197Z,30.43
2022-08-26T10:25:37.564Z,31.03
2022-08-26T10:28:21.069Z,30.49
2022-08-26T10:30:58.229Z,31.14
2022-08-26T10:33:25.497Z,30.74
2022-08-26T10:36:05.785Z,30.93
2022-08-26T10:38:35.608Z,31.11
2022-08-26T10:41:10.616Z,30.98
2022-08-26T10:43:41.778Z,31.11
2022-08-26T10:46:14.652Z,31.23
2022-08-26T10:48:47.123Z,31.29
2022-08-26T10:51:16.424Z,30.81
2022-08-26T10:53:59.480Z,31.04
2022-08-26T10:56:38.089Z,31.40
2022-08-26T10:59:29.423Z,30.10
2022-08-26T11:02:21.510Z,30.93
2022-08-26T11:04:55.694Z,30.19
2022-08-26T11:07:35.010Z,31.27
2022-08-26T11:10:21.044Z,31.62
2022-08-26T11:13:20.150Z,31.55
2022-08-26T11:15:52.469Z,31.66
2022-08-26T11:18:46.189Z,31.25
2022-08-26T11:21:49.483Z,31.79
2022-08-26T11:24:40.535Z,31.88
2022-08-26T11:27:29.657Z,31.52
2022-08-26T11:30:18.549Z,31.65
2022-08-26T11:32:52.843Z,31.32
2022-08-26T11:35:19.351Z,31.24
2022-08-26T11:37:48.454Z,31.26
2022-08-26T11:40:25.072Z,31.49
2022-08-26T11:43:18.686Z,31.50
2022-08-26T11:45:46.983Z,31.78
2022-08-26T11:48:36.590Z,31.79
2022-08-26T11:51:11.267Z,31.94
2022-08-26T11:53:41.189Z,31.98
2022-08-26T11:56:31.496Z,31.98
2022-08-26T11:59:00.983Z,31.50
2022-08-26T12:01:31.181Z,31.74
2022-08-26T12:03:59.688Z,31.86
2022-08-26T12:06:34.053Z,32.09
2022-08-26T12:09:05.392Z,31.99
2022-08-26T12:11:35.013Z,32.10
2022-08-26T12:16:29.280Z,31.99
2022-08-26T12:18:57.155Z,32.24
2022-08-26T12:21:29.206Z,31.88
2022-08-26T12:24:03.162Z,32.10
2022-08-26T12:26:35.864Z,31.53
2022-08-26T12:29:12.826Z,32.68
2022-08-26T12:31:47.889Z,32.75
2022-08-26T12:34:17.902Z,32.04
2022-08-26T12:36:48.751Z,32.59
2022-08-26T12:39:29.002Z,32.84
2022-08-26T12:42:02.872Z,32.23
2022-08-26T12:44:53.173Z,33.13
2022-08-26T12:47:43.984Z,32.13
2022-08-26T12:50:21.680Z,33.26
2022-08-26T12:53:04.589Z,33.48
2022-08-26T12:55:57.074Z,32.30
2022-08-26T12:58:31.571Z,32.13
2022-08-26T13:00:58.237Z,32.25
2022-08-26T13:03:34.031Z,31.84
2022-08-26T13:06:31.329Z,32.07
2022-08-26T13:09:09.898Z,32.05
2022-08-26T13:11:39.163Z,32.26
2022-08-26T13:14:20.989Z,32.94
2022-08-26T13:16:51.347Z,33.48
2022-08-26T13:19:25.435Z,33.45
2022-08-26T13:21:55.281Z,33.73
2022-08-26T13:24:28.661Z,32.93
2022-08-26T13:26:55.372Z,33.14
2022-08-26T13:29:22.888Z,33.09
2022-08-26T13:31:51.014Z,32.51
2022-08-26T13:34:20.059Z,32.66
2022-08-26T13:36:51.466Z,33.09
2022-08-26T13:39:18.399Z,33.26
2022-08-26T13:41:45.063Z,32.65
2022-08-26T13:44:12.454Z,32.72
2022-08-26T13:46:39.641Z,33.35
2022-08-26T13:49:06.765Z,32.09
2022-08-26T13:51:33.525Z,32.82
2022-08-26T13:54:00.316Z,32.01
2022-08-26T13:56:29.615Z,32.39
2022-08-26T13:58:57.018Z,31.41
2022-08-26T14:01:24.163Z,31.05
2022-08-26T14:03:50.798Z,30.73
2022-08-26T14:06:17.417Z,31.86
2022-08-26T14:08:44.090Z,31.77
2022-08-26T14:11:11.137Z,31.54
2022-08-26T14:13:38.462Z,31.53
2022-08-26T14:16:09.374Z,32.34
2022-08-26T14:18:43.025Z,31.83
2022-08-26T14:21:13.270Z,32.17
2022-08-26T14:23:40.211Z,32.69
2022-08-26T14:26:08.363Z,31.53
2022-08-26T14:28:35.561Z,31.22
2022-08-26T14:31:02.652Z,31.48
2022-08-26T14:33:32.709Z,31.75
2022-08-26T14:36:18.690Z,31.29
2022-08-26T14:38:46.129Z,31.14
2022-08-26T14:41:13.987Z,30.57
2022-08-26T14:43:46.836Z,31.25
2022-08-26T14:46:15.016Z,32.34
2022-08-26T14:48:41.808Z,31.61
2022-08-26T14:51:08.500Z,31.91
2022-08-26T14:53:53.254Z,32.55
2022-08-26T14:56:19.906Z,31.95
2022-08-26T14:58:46.446Z,32.06
2022-08-26T15:01:13.088Z,32.60
2022-08-26T15:03:39.606Z,32.26
2022-08-26T15:06:06.343Z,32.79
2022-08-26T15:08:36.525Z,32.95
2022-08-26T15:11:03.963Z,33.11
2022-08-26T15:13:30.810Z,33.06
2022-08-26T15:15:57.352Z,32.40
2022-08-26T15:18:23.951Z,31.93
2022-08-26T15:20:50.524Z,31.78
2022-08-26T15:23:17.067Z,29.96
2022-08-26T15:25:45.085Z,29.20
2022-08-26T15:28:12.102Z,29.88
2022-08-26T15:30:38.722Z,30.69
2022-08-26T15:33:05.348Z,29.33
2022-08-26T15:35:41.613Z,30.31
2022-08-26T15:38:10.647Z,30.49
2022-08-26T15:40:37.539Z,30.65
2022-08-26T15:43:18.481Z,29.77
2022-08-26T15:45:51.533Z,30.01
2022-08-26T15:48:18.019Z,30.04
2022-08-26T15:50:57.292Z,29.09
2022-08-26T15:53:24.530Z,30.09
2022-08-26T15:55:54.887Z,29.29
2022-08-26T15:58:24.714Z,27.30
2022-08-26T16:00:53.814Z,27.73
2022-08-26T16:03:20.364Z,28.03
2022-08-26T16:05:47.870Z,27.43
2022-08-26T16:08:15.080Z,27.98
2022-08-26T16:10:49.407Z,26.92
2022-08-26T16:13:18.956Z,26.71
2022-08-26T16:15:46.270Z,27.18
2022-08-26T16:18:13.878Z,27.15
2022-08-26T16:21:02.724Z,26.65
2022-08-26T16:23:36.448Z,27.35
2022-08-26T16:26:10.833Z,27.77
2022-08-26T16:28:37.701Z,27.29
2022-08-26T16:31:04.838Z,26.61
2022-08-26T16:33:31.308Z,26.01
2022-08-26T16:35:58.606Z,26.58
2022-08-26T16:38:25.134Z,26.03
2022-08-26T16:40:51.618Z,27.32
2022-08-26T16:43:18.139Z,27.69
2022-08-26T16:45:44.632Z,27.57
2022-08-26T16:48:11.476Z,27.69
2022-08-26T16:50:40.587Z,27.61
2022-08-26T16:53:07.890Z,28.17
2022-08-26T16:55:34.927Z,27.88
2022-08-26T16:58:01.996Z,28.33
2022-08-26T17:00:31.880Z,28.23
2022-08-26T17:02:59.771Z,28.18
2022-08-26T17:05:27.835Z,28.05
2022-08-26T17:07:55.855Z,28.41
2022-08-26T17:10:23.714Z,28.22
2022-08-26T17:12:50.690Z,28.14
2022-08-26T17:15:18.105Z,27.61
2022-08-26T17:17:45.075Z,27.82
2022-08-26T17:20:16.103Z,28.41
2022-08-26T17:22:46.584Z,28.43
2022-08-26T17:25:16.718Z,28.44
2022-08-26T17:27:43.320Z,28.24
2022-08-26T17:30:10.858Z,27.93
2022-08-26T17:32:37.729Z,28.46
2022-08-26T17:35:05.716Z,28.52
2022-08-26T17:37:32.441Z,27.79
2022-08-26T17:39:58.979Z,28.51
2022-08-26T17:42:29.101Z,28.57
2022-08-26T17:44:58.420Z,28.19
2022-08-26T17:47:24.982Z,27.91
2022-08-26T17:49:51.517Z,28.23
2022-08-26T17:52:18.028Z,28.61
2022-08-26T17:54:44.470Z,28.76
2022-08-26T17:57:11.081Z,28.47
2022-08-26T17:59:38.637Z,27.86
2022-08-26T18:02:07.419Z,28.40
2022-08-26T18:04:34.150Z,28.59
2022-08-26T18:07:01.260Z,28.08
2022-08-26T18:09:31.159Z,27.57
2022-08-26T18:11:58.597Z,28.39
2022-08-26T18:17:00.304Z,28.51
2022-08-26T18:19:26.774Z,28.40
2022-08-26T18:21:53.437Z,28.54
2022-08-26T18:24:19.901Z,28.64
2022-08-26T18:26:49.539Z,28.67
2022-08-26T18:29:18.277Z,28.20
2022-08-26T18:31:45.165Z,28.30
2022-08-26T18:34:16.035Z,28.00
2022-08-26T18:36:43.736Z,27.89
2022-08-26T18:39:12.054Z,27.84
2022-08-26T18:41:43.145Z,27.24
2022-08-26T18:44:13.403Z,26.34
2022-08-26T18:46:40.553Z,26.07
2022-08-26T18:49:08.258Z,25.58
2022-08-26T18:51:35.315Z,25.62
2022-08-26T18:54:05.186Z,25.27
2022-08-26T18:56:33.580Z,25.85
2022-08-26T18:59:00.457Z,25.65
2022-08-26T19:01:29.030Z,26.35
2022-08-26T19:03:57.129Z,25.79
2022-08-26T19:06:25.568Z,26.46
2022-08-26T19:08:52.300Z,26.75
2022-08-26T19:11:31.402Z,26.94
2022-08-26T19:14:00.269Z,26.90
2022-08-26T19:16:27.150Z,27.16
2022-08-26T19:18:54.650Z,26.72
2022-08-26T19:21:22.740Z,26.37
2022-08-26T19:23:49.798Z,27.14
2022-08-26T19:26:16.980Z,27.27
2022-08-26T19:28:43.497Z,27.39
2022-08-26T19:31:11.610Z,27.46
2022-08-26T19:33:45.060Z,27.48
2022-08-26T19:36:21.913Z,27.47
2022-08-26T19:38:49.191Z,27.57
2022-08-26T19:41:19.292Z,27.12
2022-08-26T19:43:46.296Z,27.38
2022-08-26T19:46:17.218Z,26.97
2022-08-26T19:48:44.628Z,25.80
2022-08-26T19:51:15.964Z,25.58
2022-08-26T19:53:47.371Z,25.33
2022-08-26T19:56:14.636Z,26.41
2022-08-26T19:58:41.802Z,25.23
2022-08-26T20:01:08.798Z,25.27
2022-08-26T20:03:36.399Z,25.00
2022-08-26T20:06:05.212Z,24.50
2022-08-26T20:08:33.042Z,25.41
2022-08-26T20:11:05.300Z,25.28
2022-08-26T20:13:32.952Z,25.72
2022-08-26T20:15:59.508Z,24.79
2022-08-26T20:18:44.318Z,25.47
2022-08-26T20:21:26.189Z,24.56
2022-08-26T20:24:08.291Z,25.88
2022-08-26T20:26:37.366Z,24.69
2022-08-26T20:29:05.213Z,25.25
2022-08-26T20:31:32.027Z,25.57
2022-08-26T20:33:58.610Z,24.72
2022-08-26T20:36:26.918Z,26.20
2022-08-26T20:38:54.616Z,26.25
2022-08-26T20:41:21.216Z,26.47
2022-08-26T20:43:47.808Z,26.43
2022-08-26T20:46:17.948Z,24.97
2022-08-26T20:48:46.597Z,25.76
2022-08-26T20:51:13.425Z,25.79
2022-08-26T20:53:40.074Z,26.10
2022-08-26T20:56:09.565Z,26.38
2022-08-26T20:58:37.305Z,26.13
2022-08-26T21:01:08.096Z,26.44
2022-08-26T21:03:36.254Z,26.22
2022-08-26T21:06:03.672Z,26.40
2022-08-26T21:08:33.193Z,26.35
2022-08-26T21:11:00.624Z,26.35
2022-08-26T21:13:27.231Z,26.34
2022-08-26T21:15:57.893Z,26.36
2022-08-26T21:18:25.170Z,26.34
2022-08-26T21:20:51.795Z,26.28
2022-08-26T21:23:19.299Z,26.29
2022-08-26T21:25:46.511Z,26.24
2022-08-26T21:28:13.015Z,26.17
2022-08-26T21:30:41.115Z,26.09
2022-08-26T21:33:08.347Z,26.11
2022-08-26T21:35:35.062Z,26.18
2022-08-26T21:38:01.629Z,26.13
2022-08-26T21:40:28.272Z,26.15
2022-08-26T21:42:54.805Z,25.69
2022-08-26T21:45:21.466Z,25.48
2022-08-26T21:47:48.068Z,25.59
2022-08-26T21:50:14.629Z,25.35
2022-08-26T21:52:41.237Z,24.62
2022-08-26T21:55:08.997Z,25.51
2022-08-26T21:57:38.037Z,25.51
2022-08-26T22:00:08.852Z,25.18
2022-08-26T22:02:36.841Z,25.28
2022-08-26T22:05:04.322Z,25.06
2022-08-26T22:07:30.935Z,25.32
2022-08-26T22:09:57.897Z,25.55
2022-08-26T22:12:24.448Z,25.23
2022-08-26T22:14:51.020Z,24.76
2022-08-26T22:17:17.676Z,25.02
2022-08-26T22:19:46.063Z,24.92
2022-08-26T22:22:14.438Z,25.11
2022-08-26T22:24:43.202Z,25.30
2022-08-26T22:27:11.899Z,25.01
2022-08-26T22:29:38.652Z,24.71
2022-08-26T22:32:05.461Z,25.00
2022-08-26T22:34:33.419Z,24.82
2022-08-26T22:36:59.925Z,24.61
2022-08-26T22:39:26.673Z,24.67
2022-08-26T22:41:54.270Z,24.35
2022-08-26T22:44:22.180Z,24.41
2022-08-26T22:46:50.777Z,24.82
2022-08-26T22:49:17.653Z,24.51
2022-08-26T22:51:45.264Z,24.56
2022-08-26T22:54:12.717Z,24.55
2022-08-26T22:56:39.613Z,24.56
2022-08-26T22:59:07.790Z,24.87
2022-08-26T23:01:37.463Z,24.83
2022-08-26T23:04:06.297Z,24.82
2022-08-26T23:06:38.462Z,25.02
2022-08-26T23:09:06.795Z,24.53
2022-08-26T23:11:34.118Z,24.05
2022-08-26T23:14:06.115Z,24.80
2022-08-26T23:16:39.315Z,24.10
2022-08-26T23:19:06.780Z,24.48
2022-08-26T23:21:33.342Z,24.24
2022-08-26T23:24:00.957Z,24.70
2022-08-26T23:26:27.565Z,24.94
2022-08-26T23:28:54.989Z,24.94
2022-08-26T23:31:21.672Z,24.81
2022-08-26T23:34:06.766Z,24.99
2022-08-26T23:36:34.956Z,24.71
2022-08-26T23:39:02.301Z,25.00
2022-08-26T23:41:28.859Z,24.61
2022-08-26T23:43:55.455Z,24.74
2022-08-26T23:46:22.027Z,25.01
2022-08-26T23:48:48.769Z,24.77
2022-08-26T23:51:35.638Z,25.04
2022-08-26T23:54:02.217Z,24.64
2022-08-26T23:56:29.134Z,24.96
2022-08-26T23:58:55.997Z,25.09
